Time;durP1;ratioP1;P1;durP2;ratioP2;P2;SDS_P1;SDS_P2;PMS_P1;PMS_P2;Temp;Humidity;BMP_temperature;BMP_pressure;BME280_temperature;BME280_humidity;BME280_pressure;Samples;Min_cycle;Max_cycle;Signal;HPM_P1;HPM_P2
2023/06/01 00:00:49;;;;;;;8.93;7.70;;;;;17.00;97081.00;;;;5029414;28;20198;-88
2023/06/01 00:03:39;;;;;;;10.00;7.33;;;;;17.20;97097.00;;;;5022228;28;20226;-88
2023/06/01 00:06:30;;;;;;;10.27;7.53;;;;;17.00;97082.00;;;;5018550;28;20743;-87
2023/06/01 00:09:19;;;;;;;8.73;7.00;;;;;17.00;97087.00;;;;5017772;28;20578;-88
2023/06/01 00:12:09;;;;;;;8.50;6.73;;;;;16.90;97088.00;;;;5015868;28;20202;-87
2023/06/01 00:14:59;;;;;;;8.87;7.00;;;;;16.80;97083.00;;;;5022054;28;20223;-87
2023/06/01 00:17:51;;;;;;;7.93;7.13;;;;;16.80;97082.00;;;;5011177;28;20205;-87
2023/06/01 00:20:40;;;;;;;8.87;7.30;;;;;16.70;97086.00;;;;5020477;28;20205;-87
2023/06/01 00:23:31;;;;;;;9.07;8.07;;;;;16.80;97089.00;;;;5021613;28;20226;-88
2023/06/01 00:26:21;;;;;;;7.20;6.57;;;;;16.80;97079.00;;;;5017816;28;20331;-88
2023/06/01 00:29:10;;;;;;;9.23;7.83;;;;;16.70;97078.00;;;;5019416;28;20240;-88
2023/06/01 00:31:59;;;;;;;8.43;6.53;;;;;16.60;97081.00;;;;5010110;28;20209;-88
2023/06/01 00:34:48;;;;;;;8.80;7.10;;;;;16.70;97083.00;;;;5018441;28;20712;-88
2023/06/01 00:37:37;;;;;;;8.17;7.33;;;;;16.90;97078.00;;;;5029316;28;20205;-88
2023/06/01 00:40:28;;;;;;;9.67;7.03;;;;;17.00;97083.00;;;;5016415;28;20198;-87
2023/06/01 00:43:17;;;;;;;8.27;7.47;;;;;17.10;97073.00;;;;5013803;28;20731;-88
2023/06/01 00:46:07;;;;;;;7.97;7.03;;;;;17.10;97072.00;;;;5020681;28;20275;-88
2023/06/01 00:48:56;;;;;;;10.10;6.70;;;;;16.80;97075.00;;;;5018930;28;20279;-87
2023/06/01 00:51:45;;;;;;;9.50;7.20;;;;;16.60;97070.00;;;;5018480;28;20209;-88
2023/06/01 00:54:35;;;;;;;10.50;6.67;;;;;16.50;97071.00;;;;5028522;28;20233;-88
2023/06/01 00:57:26;;;;;;;9.43;8.43;;;;;16.50;97077.00;;;;5020408;28;20255;-88
2023/06/01 01:00:16;;;;;;;11.07;7.07;;;;;16.40;97073.00;;;;5028315;28;20212;-88
2023/06/01 01:03:09;;;;;;;11.60;7.90;;;;;16.40;97078.00;;;;5021700;28;20228;-87
2023/06/01 01:06:05;;;;;;;9.33;7.40;;;;;16.80;97078.00;;;;5022002;28;20201;-87
2023/06/01 01:09:07;;;;;;;10.40;7.33;;;;;16.70;97077.00;;;;5010441;28;20596;-87
2023/06/01 01:12:00;;;;;;;7.97;7.17;;;;;16.60;97079.00;;;;5029663;28;20246;-88
2023/06/01 01:14:56;;;;;;;10.80;7.23;;;;;16.40;97073.00;;;;5027587;28;20229;-87
2023/06/01 01:17:46;;;;;;;9.67;7.97;;;;;16.40;97066.00;;;;5021898;28;20217;-87
2023/06/01 01:20:38;;;;;;;11.77;7.50;;;;;16.30;97070.00;;;;5024822;28;20232;-87
2023/06/01 01:23:41;;;;;;;8.80;7.90;;;;;16.20;97060.00;;;;5025037;28;20621;-87
2023/06/01 01:26:43;;;;;;;10.20;7.90;;;;;16.70;97063.00;;;;5026262;28;20221;-87
2023/06/01 01:29:34;;;;;;;12.17;7.37;;;;;16.80;97073.00;;;;5020722;28;20234;-87
2023/06/01 01:32:24;;;;;;;9.03;8.00;;;;;16.80;97064.00;;;;5024478;28;20197;-87
2023/06/01 01:35:13;;;;;;;11.00;9.57;;;;;16.60;97060.00;;;;5023759;28;20688;-88
2023/06/01 01:38:03;;;;;;;9.67;8.23;;;;;16.50;97063.00;;;;5023473;28;20742;-87
2023/06/01 01:40:52;;;;;;;11.87;7.63;;;;;16.30;97060.00;;;;5023188;28;20574;-88
2023/06/01 01:43:41;;;;;;;8.73;7.83;;;;;16.20;97054.00;;;;5017136;28;20263;-88
2023/06/01 01:46:36;;;;;;;8.67;7.87;;;;;16.20;97054.00;;;;5021846;28;20208;-88
2023/06/01 01:49:30;;;;;;;7.00;6.30;;;;;16.40;97061.00;;;;5025210;28;20287;-87
2023/06/01 01:52:22;;;;;;;10.10;7.37;;;;;16.40;97061.00;;;;5023785;28;20209;-88
2023/06/01 01:55:12;;;;;;;9.00;7.23;;;;;16.10;97050.00;;;;5020349;28;20213;-88
2023/06/01 01:58:02;;;;;;;9.87;8.07;;;;;16.20;97054.00;;;;5024105;28;20267;-88
2023/06/01 02:00:52;;;;;;;12.77;7.30;;;;;16.20;97042.00;;;;5025080;28;20213;-88
2023/06/01 02:03:42;;;;;;;8.20;7.37;;;;;16.20;97045.00;;;;5027291;28;20608;-87
2023/06/01 02:06:32;;;;;;;8.50;6.90;;;;;16.10;97038.00;;;;5026148;28;20197;-88
2023/06/01 02:09:21;;;;;;;8.77;6.67;;;;;16.30;97045.00;;;;5017764;28;20584;-88
2023/06/01 02:12:11;;;;;;;8.03;7.27;;;;;16.20;97033.00;;;;5025038;28;20213;-88
2023/06/01 02:15:00;;;;;;;9.10;7.93;;;;;16.00;97028.00;;;;5023380;28;20205;-87
2023/06/01 02:17:50;;;;;;;10.00;8.43;;;;;16.00;97036.00;;;;5016901;28;20206;-88
2023/06/01 02:20:40;;;;;;;11.33;8.70;;;;;16.20;97044.00;;;;5023017;28;20201;-87
2023/06/01 02:23:29;;;;;;;7.70;6.90;;;;;16.00;97039.00;;;;5020740;28;20657;-88
2023/06/01 02:26:19;;;;;;;8.93;8.03;;;;;16.30;97038.00;;;;5022450;28;20206;-87
2023/06/01 02:29:08;;;;;;;9.37;7.93;;;;;16.40;97033.00;;;;5023413;28;20209;-87
2023/06/01 02:31:58;;;;;;;10.87;7.63;;;;;16.30;97038.00;;;;5024994;28;20251;-88
2023/06/01 02:34:47;;;;;;;8.03;7.20;;;;;16.40;97035.00;;;;5026763;28;20217;-87
2023/06/01 02:37:37;;;;;;;8.10;7.27;;;;;16.30;97037.00;;;;5025336;28;20209;-88
2023/06/01 02:40:26;;;;;;;8.17;7.37;;;;;16.10;97035.00;;;;5027981;28;20228;-88
2023/06/01 02:43:15;;;;;;;9.33;7.33;;;;;16.00;97030.00;;;;5027225;28;20229;-87
2023/06/01 02:46:04;;;;;;;9.60;8.07;;;;;15.60;97029.00;;;;5020382;28;20696;-87
2023/06/01 02:48:54;;;;;;;8.80;7.37;;;;;15.60;97024.00;;;;5021846;28;20208;-87
2023/06/01 02:51:43;;;;;;;9.83;7.33;;;;;15.60;97032.00;;;;5029116;28;20252;-88
2023/06/01 02:54:33;;;;;;;8.50;7.70;;;;;15.60;97030.00;;;;5026835;28;20217;-88
2023/06/01 02:57:22;;;;;;;12.73;7.50;;;;;15.80;97028.00;;;;5021025;28;20202;-88
2023/06/01 03:00:17;;;;;;;7.20;6.47;;;;;15.90;97022.00;;;;5026581;28;20213;-88
2023/06/01 03:03:06;;;;;;;11.43;7.83;;;;;15.90;97021.00;;;;5030087;28;20228;-88
2023/06/01 03:05:56;;;;;;;9.93;7.13;;;;;15.90;97018.00;;;;5019015;28;20259;-88
2023/06/01 03:08:46;;;;;;;10.17;9.17;;;;;15.70;97019.00;;;;5021415;28;20576;-87
2023/06/01 03:11:36;;;;;;;8.90;6.83;;;;;15.50;97020.00;;;;5021776;28;20225;-88
2023/06/01 03:14:26;;;;;;;8.77;7.90;;;;;15.40;97015.00;;;;5019634;28;20717;-88
2023/06/01 03:17:15;;;;;;;9.10;8.17;;;;;15.60;97013.00;;;;5027306;28;20208;-89
2023/06/01 03:20:14;;;;;;;8.97;8.03;;;;;15.20;97009.00;;;;5030361;28;20194;-88
2023/06/01 03:23:03;;;;;;;11.13;7.90;;;;;14.90;97018.00;;;;5026041;28;20237;-88
2023/06/01 03:25:53;;;;;;;8.57;7.77;;;;;14.80;97016.00;;;;5021852;28;20205;-88
2023/06/01 03:28:43;;;;;;;10.97;8.30;;;;;14.80;97021.00;;;;5029016;28;20204;-88
2023/06/01 03:31:34;;;;;;;9.40;7.57;;;;;14.80;97004.00;;;;5017999;28;20218;-89
2023/06/01 03:34:23;;;;;;;11.20;8.13;;;;;14.80;97012.00;;;;5026342;28;20240;-88
2023/06/01 03:37:12;;;;;;;9.77;7.93;;;;;14.80;97023.00;;;;5027043;28;20236;-88
2023/06/01 03:40:10;;;;;;;11.53;8.43;;;;;14.70;97011.00;;;;5024227;28;20210;-88
2023/06/01 03:42:59;;;;;;;10.03;7.73;;;;;14.60;97009.00;;;;5024148;28;20654;-88
2023/06/01 03:45:49;;;;;;;12.03;8.53;;;;;14.40;97009.00;;;;5019717;28;20201;-88
2023/06/01 03:48:38;;;;;;;12.63;9.00;;;;;14.30;97006.00;;;;5028692;28;20583;-88
2023/06/01 03:51:28;;;;;;;9.80;8.23;;;;;14.50;97005.00;;;;5018783;28;20229;-89
2023/06/01 03:54:17;;;;;;;9.67;8.00;;;;;14.60;97019.00;;;;5026651;28;20374;-88
2023/06/01 03:57:06;;;;;;;9.00;8.10;;;;;14.50;97017.00;;;;5023646;28;20240;-88
2023/06/01 03:59:56;;;;;;;14.77;9.10;;;;;14.50;97014.00;;;;5019719;28;20210;-88
2023/06/01 04:02:49;;;;;;;10.67;8.83;;;;;14.40;97015.00;;;;5021410;28;20198;-88
2023/06/01 04:05:39;;;;;;;9.40;8.17;;;;;14.60;97017.00;;;;5024943;28;20288;-88
2023/06/01 04:08:29;;;;;;;10.00;7.77;;;;;15.00;97016.00;;;;5023287;28;20205;-87
2023/06/01 04:11:19;;;;;;;11.20;8.10;;;;;14.90;97011.00;;;;5021546;28;20308;-88
2023/06/01 04:14:08;;;;;;;8.00;7.20;;;;;14.80;97010.00;;;;5025122;28;20229;-88
2023/06/01 04:16:57;;;;;;;9.97;8.10;;;;;14.40;97016.00;;;;5018384;28;20197;-88
2023/06/01 04:19:50;;;;;;;9.93;8.63;;;;;14.50;97008.00;;;;5024262;28;20227;-88
2023/06/01 04:22:41;;;;;;;10.37;8.73;;;;;14.60;97006.00;;;;5022821;28;20198;-88
2023/06/01 04:25:31;;;;;;;9.80;8.33;;;;;14.70;97000.00;;;;5018861;28;20592;-87
2023/06/01 04:28:21;;;;;;;13.70;8.90;;;;;14.70;96998.00;;;;5021059;28;20209;-88
2023/06/01 04:31:16;;;;;;;10.60;8.50;;;;;14.70;97004.00;;;;5023917;28;20225;-88
2023/06/01 04:34:06;;;;;;;12.13;8.27;;;;;14.90;97005.00;;;;5022651;28;21496;-88
2023/06/01 04:36:56;;;;;;;13.07;10.60;;;;;15.00;97009.00;;;;5018174;28;20209;-87
2023/06/01 04:39:48;;;;;;;11.37;9.10;;;;;15.00;96989.00;;;;5026202;28;20197;-88
2023/06/01 04:42:41;;;;;;;14.43;9.63;;;;;15.10;96999.00;;;;5028117;28;20859;-87
2023/06/01 04:45:33;;;;;;;11.30;9.20;;;;;15.20;96999.00;;;;5019880;28;20201;-88
2023/06/01 04:48:22;;;;;;;12.23;8.53;;;;;15.40;97001.00;;;;5013598;28;20263;-88
2023/06/01 04:51:11;;;;;;;9.63;8.63;;;;;15.60;96999.00;;;;5024683;28;20727;-88
2023/06/01 04:54:02;;;;;;;11.27;8.77;;;;;15.70;96992.00;;;;5020479;28;20247;-87
2023/06/01 04:56:51;;;;;;;13.00;10.57;;;;;15.90;96990.00;;;;5022127;28;20197;-89
2023/06/01 04:59:42;;;;;;;11.47;9.23;;;;;16.20;97002.00;;;;5025909;28;20582;-88
2023/06/01 05:02:31;;;;;;;15.33;9.13;;;;;16.30;96999.00;;;;5022244;28;20201;-88
2023/06/01 05:05:20;;;;;;;12.97;9.80;;;;;16.30;96986.00;;;;5015768;28;20647;-89
2023/06/01 05:08:10;;;;;;;15.57;8.70;;;;;16.50;96996.00;;;;5023404;28;20201;-90
2023/06/01 05:11:01;;;;;;;11.33;9.13;;;;;16.60;96986.00;;;;5020958;28;20226;-88
2023/06/01 05:13:51;;;;;;;11.40;8.60;;;;;16.80;96987.00;;;;5024493;28;20274;-88
2023/06/01 05:16:40;;;;;;;9.20;8.27;;;;;17.00;96987.00;;;;5022757;28;20202;-88
2023/06/01 05:19:29;;;;;;;24.10;8.80;;;;;17.50;96987.00;;;;5027439;28;20197;-87
2023/06/01 05:22:19;;;;;;;9.70;8.03;;;;;17.70;96993.00;;;;5016541;28;20305;-88
2023/06/01 05:25:08;;;;;;;10.60;7.70;;;;;17.90;96997.00;;;;5024952;28;20263;-89
2023/06/01 05:27:59;;;;;;;9.63;7.37;;;;;18.20;96997.00;;;;5020625;28;20201;-89
2023/06/01 05:30:48;;;;;;;12.23;8.50;;;;;18.10;96990.00;;;;5022449;28;20204;-88
2023/06/01 05:33:38;;;;;;;10.10;8.10;;;;;18.50;96988.00;;;;5025878;28;20240;-89
2023/06/01 05:36:27;;;;;;;8.57;7.57;;;;;18.60;96983.00;;;;5021690;28;20285;-88
2023/06/01 05:39:16;;;;;;;9.83;6.50;;;;;18.80;96989.00;;;;5025078;28;20580;-88
2023/06/01 05:42:06;;;;;;;8.77;6.83;;;;;18.80;96988.00;;;;5024025;28;20666;-89
2023/06/01 05:44:57;;;;;;;10.70;6.60;;;;;18.70;96989.00;;;;5030458;28;20624;-89
2023/06/01 05:47:46;;;;;;;10.07;7.30;;;;;18.80;96989.00;;;;5030094;28;20205;-88
2023/06/01 05:50:35;;;;;;;9.83;7.10;;;;;18.60;96982.00;;;;5031691;28;20645;-89
2023/06/01 05:53:25;;;;;;;9.70;7.47;;;;;19.10;96991.00;;;;5025057;28;20228;-88
2023/06/01 05:56:14;;;;;;;11.07;8.47;;;;;19.40;96988.00;;;;5025736;28;20212;-88
2023/06/01 05:59:03;;;;;;;8.30;7.30;;;;;19.70;96989.00;;;;5027665;28;20382;-89
2023/06/01 06:01:54;;;;;;;13.83;7.70;;;;;19.80;96987.00;;;;5025640;28;20209;-89
2023/06/01 06:04:44;;;;;;;10.23;6.83;;;;;20.00;96987.00;;;;5028855;28;20699;-88
2023/06/01 06:07:33;;;;;;;9.63;6.93;;;;;19.90;96984.00;;;;5026998;28;20487;-88
2023/06/01 06:10:22;;;;;;;11.73;8.13;;;;;20.00;96987.00;;;;5025373;28;20267;-89
2023/06/01 06:13:12;;;;;;;10.63;7.00;;;;;20.20;96990.00;;;;5029257;28;20237;-89
2023/06/01 06:16:01;;;;;;;8.23;6.43;;;;;20.30;96989.00;;;;5030458;28;20708;-89
2023/06/01 06:18:52;;;;;;;7.80;5.90;;;;;20.40;96990.00;;;;5030358;28;20209;-89
2023/06/01 06:21:41;;;;;;;11.43;6.93;;;;;20.50;96996.00;;;;5030321;28;20201;-88
2023/06/01 06:24:30;;;;;;;10.40;7.07;;;;;20.60;96988.00;;;;5024054;28;20217;-87
2023/06/01 06:27:19;;;;;;;11.03;6.90;;;;;20.80;96989.00;;;;5028115;28;20201;-88
2023/06/01 06:30:09;;;;;;;8.80;6.93;;;;;20.90;96990.00;;;;5026902;28;20213;-88
2023/06/01 06:32:59;;;;;;;9.70;7.13;;;;;20.90;96988.00;;;;5026306;28;20232;-89
2023/06/01 06:35:50;;;;;;;11.20;6.97;;;;;21.20;96981.00;;;;5029340;28;20267;-89
2023/06/01 06:38:39;;;;;;;10.73;6.20;;;;;21.40;96984.00;;;;5026533;28;20700;-89
2023/06/01 06:41:28;;;;;;;10.50;5.80;;;;;21.30;96988.00;;;;5026413;28;20691;-89
2023/06/01 06:44:17;;;;;;;7.73;6.17;;;;;21.80;96988.00;;;;5028784;28;20300;-89
2023/06/01 06:47:07;;;;;;;7.07;5.83;;;;;21.90;96987.00;;;;5025960;28;20757;-89
2023/06/01 06:49:56;;;;;;;9.43;6.40;;;;;22.00;96990.00;;;;5030024;28;20711;-89
2023/06/01 06:52:47;;;;;;;8.70;6.43;;;;;22.10;96981.00;;;;5027747;28;20225;-89
2023/06/01 06:55:37;;;;;;;13.23;6.63;;;;;22.30;96989.00;;;;5024800;28;20734;-89
2023/06/01 06:58:26;;;;;;;12.20;6.03;;;;;22.70;96983.00;;;;5027677;28;20209;-88
2023/06/01 07:01:15;;;;;;;13.87;7.30;;;;;22.90;96982.00;;;;5029018;28;20197;-89
2023/06/01 07:04:06;;;;;;;9.23;6.60;;;;;23.10;96979.00;;;;5030128;28;20224;-90
2023/06/01 07:06:55;;;;;;;11.60;6.10;;;;;23.40;96975.00;;;;5029265;28;20205;-90
2023/06/01 07:09:45;;;;;;;7.67;6.17;;;;;23.50;96971.00;;;;5028889;28;20201;-88
2023/06/01 07:12:34;;;;;;;9.37;5.83;;;;;23.80;96974.00;;;;5028260;28;20244;-89
2023/06/01 07:15:25;;;;;;;10.93;6.13;;;;;24.00;96982.00;;;;5021215;28;20363;-86
2023/06/01 07:18:14;;;;;;;7.50;6.10;;;;;24.20;96981.00;;;;5029720;28;20201;-88
2023/06/01 07:21:04;;;;;;;8.97;6.20;;;;;24.30;96983.00;;;;5025024;28;20295;-87
2023/06/01 07:23:53;;;;;;;10.23;5.73;;;;;24.50;96976.00;;;;5026144;28;20225;-88
2023/06/01 07:26:43;;;;;;;12.40;5.77;;;;;24.50;96982.00;;;;5028987;28;20726;-87
2023/06/01 07:29:32;;;;;;;6.67;4.90;;;;;24.70;96980.00;;;;5025252;28;20228;-88
2023/06/01 07:32:22;;;;;;;8.50;5.47;;;;;25.00;96980.00;;;;5023752;28;20229;-88
2023/06/01 07:35:11;;;;;;;8.13;5.43;;;;;25.10;96980.00;;;;5023997;28;20233;-88
2023/06/01 07:38:03;;;;;;;6.53;5.73;;;;;25.00;96990.00;;;;5028746;28;20218;-89
2023/06/01 07:40:56;;;;;;;6.20;4.83;;;;;25.00;96983.00;;;;5028754;28;20251;-89
2023/06/01 07:43:52;;;;;;;7.20;4.60;;;;;24.80;96979.00;;;;5029738;28;20769;-89
2023/06/01 07:46:42;;;;;;;4.87;4.27;;;;;24.90;96967.00;;;;5026437;28;20212;-89
2023/06/01 07:49:36;;;;;;;9.80;5.00;;;;;25.30;96988.00;;;;5027137;28;20201;-89
2023/06/01 07:52:26;;;;;;;7.53;5.73;;;;;25.30;96984.00;;;;5027835;28;20225;-90
2023/06/01 07:55:16;;;;;;;5.60;4.70;;;;;25.40;96979.00;;;;5025238;28;20205;-88
2023/06/01 07:58:05;;;;;;;8.27;4.87;;;;;25.60;96981.00;;;;5023152;28;20197;-89
2023/06/01 08:00:57;;;;;;;8.37;5.73;;;;;25.50;96977.00;;;;5029161;28;20294;-88
2023/06/01 08:03:46;;;;;;;7.73;5.20;;;;;25.70;96979.00;;;;5026858;28;20221;-90
2023/06/01 08:06:38;;;;;;;7.87;5.33;;;;;25.10;96977.00;;;;5027560;28;20720;-88
2023/06/01 08:09:31;;;;;;;7.00;5.00;;;;;25.70;96964.00;;;;5028013;28;20223;-88
2023/06/01 08:12:32;;;;;;;8.97;4.87;;;;;25.90;96967.00;;;;5027717;28;20560;-89
2023/06/01 08:15:26;;;;;;;9.07;5.13;;;;;26.10;96977.00;;;;5028709;28;20201;-89
2023/06/01 08:18:21;;;;;;;9.47;5.23;;;;;25.30;96975.00;;;;5027910;28;20633;-89
2023/06/01 08:21:17;;;;;;;10.23;5.27;;;;;26.10;96973.00;;;;5026958;28;20197;-88
2023/06/01 08:24:11;;;;;;;7.50;4.90;;;;;26.50;96972.00;;;;5027836;28;20217;-89
2023/06/01 08:27:00;;;;;;;14.30;7.03;;;;;25.20;96974.00;;;;5023988;28;20206;-89
2023/06/01 08:29:49;;;;;;;7.90;4.93;;;;;25.40;96966.00;;;;5027576;28;20201;-89
2023/06/01 08:32:39;;;;;;;9.53;5.03;;;;;25.40;96960.00;;;;5025439;28;20592;-90
2023/06/01 08:35:34;;;;;;;7.10;4.03;;;;;23.70;96968.00;;;;5024204;28;20205;-93
2023/06/01 08:38:24;;;;;;;7.27;4.27;;;;;24.80;96955.00;;;;5025061;28;20209;-91
2023/06/01 08:41:35;;;;;;;8.03;4.57;;;;;26.20;96956.00;;;;5027032;28;20206;-89
2023/06/01 08:44:24;;;;;;;6.20;4.63;;;;;26.90;96959.00;;;;5027560;28;20209;-90
2023/06/01 08:47:14;;;;;;;6.57;5.07;;;;;26.30;96957.00;;;;5029616;28;20209;-88
2023/06/01 08:50:04;;;;;;;5.90;4.77;;;;;25.80;96954.00;;;;5030113;28;20202;-88
2023/06/01 08:52:57;;;;;;;7.87;5.23;;;;;25.30;96950.00;;;;5024782;28;20302;-89
2023/06/01 08:55:48;;;;;;;4.93;4.20;;;;;25.80;96957.00;;;;5027136;28;20201;-91
2023/06/01 08:58:42;;;;;;;7.97;5.33;;;;;26.00;96957.00;;;;5023904;28;20327;-90
2023/06/01 09:01:37;;;;;;;4.93;4.37;;;;;26.90;96954.00;;;;5023495;28;20202;-90
2023/06/01 09:04:30;;;;;;;5.33;4.57;;;;;26.00;96961.00;;;;5024510;28;20225;-89
2023/06/01 09:07:20;;;;;;;6.57;4.60;;;;;27.10;96955.00;;;;5029138;28;20194;-88
2023/06/01 09:10:11;;;;;;;7.83;4.70;;;;;26.50;96953.00;;;;5029098;28;20213;-89
2023/06/01 09:13:01;;;;;;;6.37;4.20;;;;;27.30;96948.00;;;;5027372;28;20222;-90
2023/06/01 09:15:56;;;;;;;9.30;4.83;;;;;27.80;96946.00;;;;5028643;28;20598;-89
2023/06/01 09:18:55;;;;;;;6.20;4.47;;;;;26.70;96944.00;;;;5030770;28;20197;-89
2023/06/01 09:21:57;;;;;;;7.23;5.13;;;;;28.00;96950.00;;;;5033171;28;20229;-89
2023/06/01 09:25:02;;;;;;;8.50;4.80;;;;;26.60;96943.00;;;;5033852;28;20228;-89
2023/06/01 09:27:54;;;;;;;6.87;5.00;;;;;28.30;96938.00;;;;5034100;28;20233;-89
2023/06/01 09:30:44;;;;;;;8.90;5.50;;;;;27.30;96932.00;;;;5032914;28;20215;-89
2023/06/01 09:33:43;;;;;;;6.43;3.73;;;;;28.00;96937.00;;;;5032833;28;20233;-90
2023/06/01 09:36:37;;;;;;;7.87;4.77;;;;;28.40;96933.00;;;;5031324;28;20257;-87
2023/06/01 09:39:46;;;;;;;7.90;5.33;;;;;27.70;96930.00;;;;5031966;28;20215;-91
2023/06/01 09:42:36;;;;;;;7.43;5.20;;;;;28.50;96942.00;;;;5032010;28;20207;-90
2023/06/01 09:45:30;;;;;;;7.37;5.37;;;;;27.70;96931.00;;;;5033402;28;20911;-89
2023/06/01 09:48:22;;;;;;;10.83;5.37;;;;;26.70;96927.00;;;;5032024;28;20202;-89
2023/06/01 09:52:04;;;;;;;14.47;4.50;;;;;26.00;96915.00;;;;5022285;28;20602;-91
2023/06/01 09:54:58;;;;;;;8.27;5.30;;;;;27.30;96925.00;;;;5030772;28;20223;-89
2023/06/01 09:57:47;;;;;;;8.27;5.47;;;;;27.60;96918.00;;;;5030908;28;20205;-89
2023/06/01 10:00:38;;;;;;;6.90;4.83;;;;;28.50;96935.00;;;;5030047;28;20672;-90
2023/06/01 10:03:32;;;;;;;5.63;4.50;;;;;29.00;96927.00;;;;5030132;28;20223;-89
2023/06/01 10:06:22;;;;;;;8.47;6.00;;;;;28.10;96934.00;;;;5023700;28;20210;-89
2023/06/01 10:09:15;;;;;;;8.07;5.80;;;;;27.80;96923.00;;;;5031399;28;20204;-88
2023/06/01 10:12:05;;;;;;;9.37;5.97;;;;;27.90;96898.00;;;;5022088;28;20267;-89
2023/06/01 10:14:56;;;;;;;8.97;6.10;;;;;28.20;96912.00;;;;5026331;28;20224;-89
2023/06/01 10:17:47;;;;;;;7.53;5.40;;;;;30.00;96892.00;;;;5027217;28;20201;-90
2023/06/01 10:20:37;;;;;;;10.00;4.80;;;;;30.00;96901.00;;;;5029357;28;20210;-90
2023/06/01 10:23:26;;;;;;;10.17;5.77;;;;;28.50;96911.00;;;;5030358;28;20690;-90
2023/06/01 10:26:19;;;;;;;8.77;4.83;;;;;27.10;96901.00;;;;5024928;28;20665;-90
2023/06/01 10:29:19;;;;;;;9.93;6.30;;;;;27.80;96901.00;;;;5026475;28;20681;-88
2023/06/01 10:32:44;;;;;;;7.13;5.00;;;;;27.70;96876.00;;;;5025527;28;20606;-90
2023/06/01 10:36:04;;;;;;;10.00;4.90;;;;;28.10;96883.00;;;;5031893;28;20214;-90
2023/06/01 10:39:24;;;;;;;9.40;6.87;;;;;29.20;96883.00;;;;5029172;28;20302;-90
2023/06/01 10:42:35;;;;;;;6.97;5.03;;;;;29.80;96871.00;;;;5028028;28;20289;-89
2023/06/01 10:45:40;;;;;;;8.37;4.83;;;;;29.50;96911.00;;;;5030114;28;20202;-89
2023/06/01 10:48:54;;;;;;;5.97;4.37;;;;;29.70;96875.00;;;;5026761;28;20219;-88
2023/06/01 10:55:30;;;;;;;6.30;4.40;;;;;31.60;96862.00;;;;5029522;28;20230;-88
2023/06/01 10:59:19;;;;;;;6.80;4.37;;;;;31.60;96869.00;;;;5029004;28;20202;-90
2023/06/01 11:02:16;;;;;;;8.77;5.00;;;;;31.20;96914.00;;;;5027259;28;20200;-89
2023/06/01 11:09:18;;;;;;;4.83;4.33;;;;;31.10;96864.00;;;;5021120;28;20264;-90
2023/06/01 11:13:09;;;;;;;8.07;4.73;;;;;31.80;96851.00;;;;5025700;28;20215;-90
2023/06/01 11:16:41;;;;;;;8.47;4.77;;;;;32.60;96851.00;;;;5029928;28;20204;-91
2023/06/01 11:19:40;;;;;;;8.33;4.40;;;;;31.40;96843.00;;;;5028283;28;20211;-92
2023/06/01 11:22:36;;;;;;;6.60;5.10;;;;;32.50;96837.00;;;;5025164;28;20596;-92
2023/06/01 11:26:14;;;;;;;6.73;4.90;;;;;33.10;96837.00;;;;5038681;28;20342;-93
2023/06/01 11:29:20;;;;;;;6.50;4.50;;;;;32.20;96827.00;;;;5025516;28;20651;-90
2023/06/01 11:32:12;;;;;;;6.90;4.78;;;;;32.90;96815.00;;;;5026027;28;20216;-90
2023/06/01 11:35:02;;;;;;;9.88;5.20;;;;;31.20;96876.00;;;;5027377;28;20278;-90
2023/06/01 11:37:55;;;;;;;6.75;5.90;;;;;30.00;96878.00;;;;5028481;28;20294;-90
2023/06/01 11:41:06;;;;;;;5.45;4.60;;;;;29.90;96805.00;;;;5026908;28;20204;-89
2023/06/01 11:44:01;;;;;;;5.97;4.33;;;;;30.90;96816.00;;;;5034168;28;20744;-89
2023/06/01 11:46:58;;;;;;;8.93;5.03;;;;;31.60;96801.00;;;;5029356;28;20207;-89
2023/06/01 11:50:14;;;;;;;7.80;5.00;;;;;33.40;96801.00;;;;5028383;28;20207;-92
2023/06/01 11:53:09;;;;;;;8.68;4.35;;;;;32.80;96804.00;;;;5022218;28;20224;-88
2023/06/01 11:55:59;;;;;;;8.63;4.60;;;;;31.70;96792.00;;;;5029323;28;20227;-88
2023/06/01 11:58:50;;;;;;;5.38;4.88;;;;;29.10;96799.00;;;;5031203;28;20208;-89
2023/06/01 12:01:48;;;;;;;5.17;4.67;;;;;28.70;96766.00;;;;5031901;28;20227;-88
2023/06/01 12:13:03;;;;;;;7.97;5.37;;;;;32.10;96773.00;;;;4993230;23;20244;-73
2023/06/01 12:15:54;;;;;;;8.07;4.77;;;;;32.60;96811.00;;;;4984802;28;20264;-73
2023/06/01 12:18:43;;;;;;;4.38;3.97;;;;;31.90;96814.00;;;;4980254;28;20615;-71
2023/06/01 12:21:34;;;;;;;6.40;4.72;;;;;32.70;96795.00;;;;4982955;28;20265;-71
2023/06/01 12:24:30;;;;;;;8.30;4.95;;;;;30.10;96726.00;;;;4982253;28;20277;-70
2023/06/01 12:27:20;;;;;;;5.20;4.23;;;;;27.00;96793.00;;;;4982173;28;20245;-68
2023/06/01 12:30:22;;;;;;;6.40;4.53;;;;;27.30;96803.00;;;;4981723;28;20210;-72
2023/06/01 12:33:19;;;;;;;7.23;4.53;;;;;28.10;96803.00;;;;4982021;28;20284;-74
2023/06/01 12:36:09;;;;;;;6.73;4.43;;;;;27.80;96786.00;;;;4989120;28;20223;-70
2023/06/01 12:39:00;;;;;;;6.83;4.30;;;;;27.70;96730.00;;;;4988035;28;20223;-70
2023/06/01 12:41:50;;;;;;;7.00;5.00;;;;;28.00;96776.00;;;;4979622;28;20216;-68
2023/06/01 12:44:41;;;;;;;8.00;5.37;;;;;28.10;96716.00;;;;4987699;28;20612;-72
2023/06/01 12:47:37;;;;;;;6.40;5.50;;;;;27.90;96722.00;;;;4984863;28;20700;-69
2023/06/01 12:50:26;;;;;;;5.57;4.70;;;;;27.10;96759.00;;;;4982563;28;20217;-68
2023/06/01 12:53:15;;;;;;;8.00;5.37;;;;;27.10;96779.00;;;;4977409;28;20207;-69
2023/06/01 12:56:06;;;;;;;8.87;4.67;;;;;28.20;96691.00;;;;4983575;28;20240;-69
2023/06/01 12:58:55;;;;;;;10.53;4.90;;;;;28.70;96701.00;;;;4988549;28;20306;-72
2023/06/01 13:01:44;;;;;;;7.03;5.30;;;;;29.70;96707.00;;;;4983687;28;20698;-72
2023/06/01 13:04:34;;;;;;;5.43;4.83;;;;;29.60;96707.00;;;;4984302;28;20707;-73
2023/06/01 13:07:23;;;;;;;7.63;5.27;;;;;29.10;96705.00;;;;4979468;28;20710;-71
2023/06/01 13:10:14;;;;;;;5.43;4.10;;;;;28.30;96689.00;;;;4986250;28;20201;-66
2023/06/01 13:13:04;;;;;;;5.07;4.57;;;;;27.50;96687.00;;;;4984397;28;20585;-66
2023/06/01 13:15:54;;;;;;;5.87;5.23;;;;;29.10;96678.00;;;;4988640;28;20239;-72
2023/06/01 13:18:43;;;;;;;7.07;5.30;;;;;28.40;96678.00;;;;4982618;28;20610;-68
2023/06/01 13:21:33;;;;;;;8.57;4.63;;;;;27.90;96672.00;;;;4984133;28;20198;-68
2023/06/01 13:24:22;;;;;;;6.87;4.90;;;;;28.20;96677.00;;;;4983111;23;20236;-83
2023/06/01 13:27:11;;;;;;;6.67;5.00;;;;;28.30;96666.00;;;;4982567;28;20204;-82
2023/06/01 13:30:02;;;;;;;5.53;4.60;;;;;29.90;96676.00;;;;4987020;28;20209;-81
2023/06/01 13:32:51;;;;;;;6.13;4.77;;;;;27.90;96658.00;;;;4981098;28;20200;-82
2023/06/01 13:35:40;;;;;;;7.77;4.80;;;;;28.20;96662.00;;;;4966853;28;20268;-86
2023/06/01 13:38:30;;;;;;;6.53;4.77;;;;;28.60;96661.00;;;;4987273;23;20305;-73
2023/06/01 13:41:19;;;;;;;7.57;4.93;;;;;28.80;96658.00;;;;4963785;28;20210;-71
2023/06/01 13:44:08;;;;;;;8.47;4.83;;;;;28.60;96654.00;;;;4966445;28;20268;-72
2023/06/01 13:46:59;;;;;;;9.93;4.60;;;;;29.50;96653.00;;;;4970081;28;20205;-72
2023/06/01 13:49:48;;;;;;;5.63;4.73;;;;;29.30;96658.00;;;;4967040;28;20600;-71
2023/06/01 13:52:37;;;;;;;6.67;4.80;;;;;27.70;96644.00;;;;4967546;28;20207;-69
2023/06/01 13:55:28;;;;;;;6.60;4.03;;;;;30.10;96641.00;;;;4971988;28;20243;-73
2023/06/01 13:58:17;;;;;;;7.57;4.50;;;;;29.60;96641.00;;;;4964821;28;20207;-72
2023/06/01 14:01:06;;;;;;;5.87;5.10;;;;;29.90;96649.00;;;;4965409;28;20202;-73
2023/06/01 14:03:56;;;;;;;6.40;3.97;;;;;27.60;96627.00;;;;4972947;28;20226;-73
2023/06/01 14:06:45;;;;;;;5.20;3.83;;;;;28.30;96635.00;;;;4969290;28;20262;-68
2023/06/01 14:09:35;;;;;;;6.73;4.57;;;;;29.90;96638.00;;;;4967850;28;20213;-72
2023/06/01 14:12:24;;;;;;;7.50;5.17;;;;;29.90;96627.00;;;;4968147;28;20208;-69
2023/06/01 14:15:13;;;;;;;4.93;4.00;;;;;28.90;96627.00;;;;4971716;28;20232;-66
2023/06/01 14:18:02;;;;;;;6.53;4.43;;;;;30.30;96623.00;;;;4967953;28;20608;-72
2023/06/01 14:20:52;;;;;;;7.20;4.20;;;;;31.40;96625.00;;;;4966298;28;20247;-73
2023/06/01 14:23:44;;;;;;;6.37;3.77;;;;;31.20;96622.00;;;;4971196;28;20726;-71
2023/06/01 14:26:33;;;;;;;5.40;3.60;;;;;30.20;96622.00;;;;4966481;28;20217;-73
2023/06/01 14:29:22;;;;;;;5.03;4.17;;;;;29.60;96614.00;;;;4971284;28;20201;-67
2023/06/01 14:32:11;;;;;;;6.60;4.23;;;;;30.00;96617.00;;;;4970578;28;20207;-70
2023/06/01 14:35:00;;;;;;;6.40;4.57;;;;;29.50;96622.00;;;;4971743;28;20716;-67
2023/06/01 14:37:51;;;;;;;5.17;4.67;;;;;31.50;96618.00;;;;4968347;28;20204;-67